Time;durP1;ratioP1;P1;durP2;ratioP2;P2;SDS_P1;SDS_P2;PMS_P1;PMS_P2;Temp;Humidity;BMP_temperature;BMP_pressure;BME280_temperature;BME280_humidity;BME280_pressure;Samples;Min_cycle;Max_cycle;Signal;HPM_P1;HPM_P2
2022/03/26 00:02:43;;;;;;;83.53;67.97;;;;;;;;;;6172885;28;20238;-73
2022/03/26 00:06:06;;;;;;;80.10;67.23;;;;;;;;;;6167805;28;20243;-72
2022/03/26 00:09:27;;;;;;;81.73;69.43;;;;;;;;;;6166567;28;20238;-73
2022/03/26 00:12:49;;;;;;;80.27;68.97;;;;;;;;;;6165000;28;20313;-73
2022/03/26 00:16:10;;;;;;;78.43;66.03;;;;;;;;;;6163612;28;20242;-73
2022/03/26 00:19:33;;;;;;;82.87;68.70;;;;;;;;;;6167678;28;20248;-73
2022/03/26 00:22:53;;;;;;;80.53;65.40;;;;;;;;;;6167209;28;20230;-73
2022/03/26 00:26:15;;;;;;;81.73;69.97;;;;;;;;;;6166586;28;20230;-73
2022/03/26 00:29:36;;;;;;;79.17;66.13;;;;;;;;;;6164365;28;20580;-75
2022/03/26 00:32:58;;;;;;;81.63;67.10;;;;;;;;;;6169022;28;20235;-73
2022/03/26 00:36:20;;;;;;;83.70;64.37;;;;;;;;;;6150684;28;20250;-73
2022/03/26 00:39:42;;;;;;;73.97;64.00;;;;;;;;;;6167473;28;20329;-73
2022/03/26 00:43:03;;;;;;;72.03;61.03;;;;;;;;;;6168893;28;20512;-73
2022/03/26 00:46:24;;;;;;;76.50;65.40;;;;;;;;;;6166841;28;20231;-73
2022/03/26 00:49:45;;;;;;;75.53;64.20;;;;;;;;;;6160867;28;20222;-72
2022/03/26 00:53:07;;;;;;;76.10;60.47;;;;;;;;;;6165437;28;20226;-72
2022/03/26 00:56:28;;;;;;;77.00;66.83;;;;;;;;;;6168164;28;20502;-71
2022/03/26 00:59:50;;;;;;;84.50;68.90;;;;;;;;;;6162872;28;20257;-73
2022/03/26 01:03:11;;;;;;;77.57;65.97;;;;;;;;;;6167409;28;20230;-71
2022/03/26 01:06:32;;;;;;;83.40;68.63;;;;;;;;;;6162586;28;20239;-72
2022/03/26 01:09:55;;;;;;;83.90;69.17;;;;;;;;;;6154852;28;20643;-72
2022/03/26 01:13:16;;;;;;;85.20;72.07;;;;;;;;;;6142263;28;20234;-72
2022/03/26 01:16:37;;;;;;;89.93;72.53;;;;;;;;;;6161007;28;20329;-72
2022/03/26 01:19:59;;;;;;;85.90;70.60;;;;;;;;;;6164868;28;20218;-73
2022/03/26 01:23:20;;;;;;;85.60;71.43;;;;;;;;;;6169355;28;20230;-73
2022/03/26 01:26:43;;;;;;;91.90;72.73;;;;;;;;;;6157782;28;20235;-72
2022/03/26 01:30:05;;;;;;;83.43;69.57;;;;;;;;;;6149569;28;20583;-72
2022/03/26 01:33:26;;;;;;;86.00;68.73;;;;;;;;;;6153061;28;20624;-72
2022/03/26 01:36:47;;;;;;;87.03;69.07;;;;;;;;;;6153898;28;20238;-73
2022/03/26 01:40:08;;;;;;;82.20;68.73;;;;;;;;;;6154331;28;20231;-73
2022/03/26 01:43:31;;;;;;;80.70;68.97;;;;;;;;;;6152972;28;20226;-73
2022/03/26 01:46:53;;;;;;;82.83;70.43;;;;;;;;;;6162306;28;20230;-72
2022/03/26 01:50:14;;;;;;;85.70;69.73;;;;;;;;;;6166384;28;20230;-72
2022/03/26 01:53:35;;;;;;;84.90;65.23;;;;;;;;;;6161397;28;20230;-71
2022/03/26 01:56:56;;;;;;;82.17;70.60;;;;;;;;;;6160599;28;20234;-73
2022/03/26 02:00:18;;;;;;;87.87;69.80;;;;;;;;;;6163914;28;20663;-72
2022/03/26 02:03:40;;;;;;;90.43;70.37;;;;;;;;;;6134031;28;20230;-73
2022/03/26 02:07:02;;;;;;;81.10;71.00;;;;;;;;;;6159630;28;20574;-73
2022/03/26 02:10:23;;;;;;;86.93;70.70;;;;;;;;;;6147002;28;20223;-73
2022/03/26 02:13:51;;;;;;;86.63;71.30;;;;;;;;;;6166395;28;20234;-73
2022/03/26 02:17:13;;;;;;;88.13;70.23;;;;;;;;;;6147423;28;20266;-72
2022/03/26 02:20:37;;;;;;;84.33;70.97;;;;;;;;;;6158717;28;20223;-73
2022/03/26 02:23:57;;;;;;;85.07;69.00;;;;;;;;;;6164762;28;20242;-73
2022/03/26 02:27:19;;;;;;;82.03;68.10;;;;;;;;;;6158210;28;20783;-73
2022/03/26 02:30:39;;;;;;;77.57;66.70;;;;;;;;;;6159421;28;20230;-72
2022/03/26 02:34:00;;;;;;;81.30;67.67;;;;;;;;;;6160371;28;20604;-73
2022/03/26 02:37:24;;;;;;;78.07;65.77;;;;;;;;;;6163581;28;20227;-72
2022/03/26 02:40:46;;;;;;;86.80;69.90;;;;;;;;;;6168259;28;20601;-73
2022/03/26 02:44:07;;;;;;;75.50;65.10;;;;;;;;;;6170382;28;20234;-71
2022/03/26 02:47:28;;;;;;;81.60;70.03;;;;;;;;;;6150361;28;20235;-73
2022/03/26 02:50:50;;;;;;;83.03;67.33;;;;;;;;;;6161014;28;20227;-72
2022/03/26 02:54:18;;;;;;;75.00;63.07;;;;;;;;;;6166413;28;20242;-73
2022/03/26 02:57:39;;;;;;;77.33;62.97;;;;;;;;;;6158826;28;20317;-73
2022/03/26 03:01:00;;;;;;;75.23;62.77;;;;;;;;;;6174144;28;20241;-72
2022/03/26 03:04:21;;;;;;;75.43;63.03;;;;;;;;;;6166347;28;20241;-72
2022/03/26 03:07:42;;;;;;;73.67;61.57;;;;;;;;;;6154432;28;20230;-73
2022/03/26 03:11:04;;;;;;;73.97;59.67;;;;;;;;;;6165345;28;20226;-73
2022/03/26 03:14:25;;;;;;;83.97;63.33;;;;;;;;;;6161974;28;20234;-72
2022/03/26 03:17:48;;;;;;;76.97;63.33;;;;;;;;;;6163802;28;20317;-73
2022/03/26 03:21:09;;;;;;;72.47;61.97;;;;;;;;;;6163068;28;20230;-73
2022/03/26 03:24:30;;;;;;;75.07;59.23;;;;;;;;;;6171334;28;20222;-73
2022/03/26 03:27:52;;;;;;;69.50;58.07;;;;;;;;;;6166767;28;20234;-71
2022/03/26 03:31:13;;;;;;;75.53;61.97;;;;;;;;;;6155913;28;20248;-73
2022/03/26 03:34:34;;;;;;;76.43;60.37;;;;;;;;;;6165435;28;20227;-73
2022/03/26 03:37:55;;;;;;;72.23;57.73;;;;;;;;;;6160338;28;20254;-72
2022/03/26 03:41:17;;;;;;;67.33;54.87;;;;;;;;;;6170202;28;20648;-72
2022/03/26 03:44:39;;;;;;;66.30;56.27;;;;;;;;;;6155151;28;20256;-73
2022/03/26 03:48:00;;;;;;;74.67;62.53;;;;;;;;;;6162409;28;20254;-73
2022/03/26 03:51:20;;;;;;;76.30;59.57;;;;;;;;;;6171117;28;20259;-72
2022/03/26 03:54:41;;;;;;;71.87;59.20;;;;;;;;;;6169014;28;20230;-72
2022/03/26 03:58:02;;;;;;;66.97;57.70;;;;;;;;;;6170108;28;20238;-73
2022/03/26 04:01:25;;;;;;;75.80;59.97;;;;;;;;;;6170883;28;20708;-73
2022/03/26 04:04:46;;;;;;;70.50;60.87;;;;;;;;;;6163209;28;20310;-71
2022/03/26 04:08:07;;;;;;;69.50;57.40;;;;;;;;;;6168739;28;20292;-72
2022/03/26 04:11:28;;;;;;;72.27;57.70;;;;;;;;;;6169393;28;20238;-72
2022/03/26 04:14:48;;;;;;;79.07;60.33;;;;;;;;;;6142992;28;20239;-71
2022/03/26 04:18:11;;;;;;;68.70;59.07;;;;;;;;;;6166371;28;20234;-73
2022/03/26 04:21:31;;;;;;;69.63;58.30;;;;;;;;;;6169435;28;20321;-72
2022/03/26 04:24:52;;;;;;;77.03;60.47;;;;;;;;;;6163569;28;20230;-72
2022/03/26 04:28:13;;;;;;;69.53;59.63;;;;;;;;;;6169805;28;20234;-71
2022/03/26 04:31:33;;;;;;;71.93;62.73;;;;;;;;;;6165132;28;20238;-73
2022/03/26 04:34:56;;;;;;;74.53;61.67;;;;;;;;;;6174536;28;20222;-72
2022/03/26 04:38:16;;;;;;;75.47;61.83;;;;;;;;;;6160305;28;20230;-73
2022/03/26 04:41:37;;;;;;;75.80;63.00;;;;;;;;;;6168537;28;20246;-72
2022/03/26 04:44:58;;;;;;;78.47;63.87;;;;;;;;;;6164755;28;20781;-73
2022/03/26 04:48:19;;;;;;;77.73;60.83;;;;;;;;;;6157966;28;20234;-73
2022/03/26 04:51:42;;;;;;;79.30;66.03;;;;;;;;;;6170565;28;20231;-74
2022/03/26 04:55:04;;;;;;;76.90;63.27;;;;;;;;;;6153732;28;20230;-71
2022/03/26 04:58:25;;;;;;;84.67;69.60;;;;;;;;;;6152675;28;20601;-72
2022/03/26 05:01:47;;;;;;;82.47;69.33;;;;;;;;;;6159697;28;20250;-72
2022/03/26 05:05:10;;;;;;;88.60;72.80;;;;;;;;;;6166702;28;20569;-72
2022/03/26 05:08:32;;;;;;;83.30;66.27;;;;;;;;;;6165478;28;20246;-73
2022/03/26 05:11:53;;;;;;;89.90;71.50;;;;;;;;;;6161223;28;20235;-73
2022/03/26 05:15:14;;;;;;;89.87;71.07;;;;;;;;;;6155565;28;20226;-73
2022/03/26 05:18:37;;;;;;;89.97;70.27;;;;;;;;;;6156740;28;20310;-74
2022/03/26 05:21:57;;;;;;;85.13;70.27;;;;;;;;;;6159616;28;20239;-72
2022/03/26 05:25:20;;;;;;;81.97;68.00;;;;;;;;;;6160565;28;20321;-71
2022/03/26 05:28:41;;;;;;;81.47;68.30;;;;;;;;;;6167457;28;20238;-73
2022/03/26 05:32:04;;;;;;;84.57;71.43;;;;;;;;;;6151191;28;20238;-72
2022/03/26 05:35:25;;;;;;;87.33;72.63;;;;;;;;;;6162379;28;20250;-72
2022/03/26 05:38:45;;;;;;;85.13;69.40;;;;;;;;;;6157500;28;20255;-72
2022/03/26 05:42:09;;;;;;;92.63;71.67;;;;;;;;;;6158555;28;20222;-72
2022/03/26 05:45:30;;;;;;;85.67;72.27;;;;;;;;;;6161758;28;20235;-72
2022/03/26 05:48:51;;;;;;;85.97;71.03;;;;;;;;;;6160522;28;20328;-71
2022/03/26 05:52:12;;;;;;;89.27;68.97;;;;;;;;;;6163187;28;20246;-73
2022/03/26 05:55:33;;;;;;;92.17;73.87;;;;;;;;;;6160435;28;20255;-72
2022/03/26 05:58:55;;;;;;;93.07;75.43;;;;;;;;;;6151668;28;20250;-72
2022/03/26 06:02:16;;;;;;;98.73;76.57;;;;;;;;;;6161447;28;20247;-72
2022/03/26 06:05:38;;;;;;;90.80;73.07;;;;;;;;;;6139059;28;20258;-72
2022/03/26 06:08:59;;;;;;;90.50;73.17;;;;;;;;;;6154012;28;20308;-72
2022/03/26 06:12:20;;;;;;;89.80;73.97;;;;;;;;;;6160469;28;20570;-71
2022/03/26 06:15:42;;;;;;;97.83;74.03;;;;;;;;;;6160802;28;20499;-71
2022/03/26 06:19:03;;;;;;;87.73;70.83;;;;;;;;;;6160064;28;20516;-72
2022/03/26 06:22:24;;;;;;;94.70;75.80;;;;;;;;;;6159161;28;20313;-72
2022/03/26 06:25:45;;;;;;;87.47;71.43;;;;;;;;;;6156405;28;20234;-72
2022/03/26 06:29:06;;;;;;;87.90;70.77;;;;;;;;;;6151577;28;20227;-73
2022/03/26 06:32:28;;;;;;;94.53;74.17;;;;;;;;;;6149180;28;20230;-72
2022/03/26 06:35:49;;;;;;;89.53;72.97;;;;;;;;;;6161184;28;20231;-71
2022/03/26 06:39:10;;;;;;;88.37;73.37;;;;;;;;;;6164317;28;20278;-72
2022/03/26 06:42:31;;;;;;;86.23;70.40;;;;;;;;;;6165154;28;20346;-71
2022/03/26 06:45:52;;;;;;;84.37;69.70;;;;;;;;;;6162159;28;20271;-72
2022/03/26 06:49:14;;;;;;;86.07;69.30;;;;;;;;;;6150817;28;20230;-71
2022/03/26 06:52:35;;;;;;;80.10;66.37;;;;;;;;;;6166574;28;20295;-73
2022/03/26 06:55:57;;;;;;;80.40;66.40;;;;;;;;;;6164582;28;20238;-74
2022/03/26 06:59:17;;;;;;;76.70;62.63;;;;;;;;;;6151677;28;20227;-73
2022/03/26 07:02:38;;;;;;;80.13;64.00;;;;;;;;;;6150753;28;20242;-72
2022/03/26 07:06:01;;;;;;;71.43;56.83;;;;;;;;;;6162001;28;20314;-74
2022/03/26 07:09:23;;;;;;;68.20;56.60;;;;;;;;;;6159884;28;20231;-74
2022/03/26 07:12:44;;;;;;;70.60;56.30;;;;;;;;;;6155999;28;20621;-72
2022/03/26 07:16:05;;;;;;;69.23;57.40;;;;;;;;;;6166628;28;20230;-73
2022/03/26 07:19:26;;;;;;;62.20;51.90;;;;;;;;;;6165698;28;20235;-73
2022/03/26 07:22:48;;;;;;;69.63;58.13;;;;;;;;;;6167315;28;20562;-72
2022/03/26 07:26:09;;;;;;;65.30;53.03;;;;;;;;;;6167549;28;20226;-72
2022/03/26 07:29:30;;;;;;;64.17;55.03;;;;;;;;;;6162083;28;20245;-73
2022/03/26 07:32:51;;;;;;;64.53;52.70;;;;;;;;;;6149275;28;20231;-73
2022/03/26 07:36:12;;;;;;;60.30;49.60;;;;;;;;;;6151796;28;20680;-73
2022/03/26 07:39:34;;;;;;;59.03;50.03;;;;;;;;;;6153444;28;20230;-73
2022/03/26 07:42:54;;;;;;;55.07;44.77;;;;;;;;;;6154836;28;20243;-74
2022/03/26 07:46:18;;;;;;;53.27;45.60;;;;;;;;;;6151959;28;20227;-73
2022/03/26 07:49:39;;;;;;;48.43;42.60;;;;;;;;;;6170905;28;20300;-73
2022/03/26 07:52:59;;;;;;;48.37;42.50;;;;;;;;;;6165905;28;20230;-73
2022/03/26 07:56:22;;;;;;;49.87;42.40;;;;;;;;;;6167052;28;20239;-72
2022/03/26 07:59:43;;;;;;;45.40;39.17;;;;;;;;;;6170329;28;20235;-72
2022/03/26 08:03:04;;;;;;;45.43;37.97;;;;;;;;;;6165646;28;20322;-72
2022/03/26 08:06:25;;;;;;;42.23;36.87;;;;;;;;;;6165263;28;20234;-74
2022/03/26 08:09:46;;;;;;;40.60;35.07;;;;;;;;;;6164092;28;20234;-73
2022/03/26 08:13:08;;;;;;;40.67;36.23;;;;;;;;;;6169510;28;20231;-73
2022/03/26 08:16:29;;;;;;;38.47;33.90;;;;;;;;;;6167725;28;20371;-74
2022/03/26 08:19:50;;;;;;;37.57;31.97;;;;;;;;;;6165833;28;20230;-72
2022/03/26 08:23:10;;;;;;;36.07;31.17;;;;;;;;;;6168371;28;20242;-73
2022/03/26 08:26:31;;;;;;;34.93;30.17;;;;;;;;;;6169395;28;20666;-73
2022/03/26 08:29:56;;;;;;;33.13;29.17;;;;;;;;;;6168202;28;20241;-74
2022/03/26 08:33:17;;;;;;;30.53;26.77;;;;;;;;;;6168111;28;20230;-73
2022/03/26 08:36:38;;;;;;;35.10;29.60;;;;;;;;;;6168609;28;20230;-73
2022/03/26 08:39:59;;;;;;;37.63;29.10;;;;;;;;;;6167881;28;20235;-73
2022/03/26 08:43:20;;;;;;;27.13;24.00;;;;;;;;;;6167458;28;20238;-73
2022/03/26 08:46:42;;;;;;;31.93;23.67;;;;;;;;;;6163871;28;20266;-71
2022/03/26 08:50:04;;;;;;;25.40;21.87;;;;;;;;;;6151834;28;20241;-73
2022/03/26 08:53:25;;;;;;;25.20;22.10;;;;;;;;;;6158232;28;20226;-73
2022/03/26 08:56:46;;;;;;;23.20;20.60;;;;;;;;;;6148242;28;20317;-73
2022/03/26 09:00:08;;;;;;;24.87;22.33;;;;;;;;;;6156419;28;20261;-74
2022/03/26 09:03:31;;;;;;;22.00;18.60;;;;;;;;;;6149319;28;20235;-74
2022/03/26 09:06:52;;;;;;;26.57;22.83;;;;;;;;;;6153688;28;20234;-72
2022/03/26 09:10:13;;;;;;;23.73;21.30;;;;;;;;;;6153753;28;20227;-73
2022/03/26 09:13:34;;;;;;;23.10;20.07;;;;;;;;;;6157141;28;20644;-73
2022/03/26 09:16:55;;;;;;;29.17;23.73;;;;;;;;;;6148336;28;20223;-73
2022/03/26 09:20:17;;;;;;;23.00;20.53;;;;;;;;;;6151727;28;20289;-72
2022/03/26 09:23:38;;;;;;;25.53;20.20;;;;;;;;;;6142429;28;20234;-72
2022/03/26 09:27:00;;;;;;;20.97;18.27;;;;;;;;;;6146212;28;20222;-72
2022/03/26 09:30:21;;;;;;;19.10;16.70;;;;;;;;;;6148154;28;20227;-73
2022/03/26 09:33:42;;;;;;;16.53;14.83;;;;;;;;;;6157676;28;20243;-75
2022/03/26 09:37:05;;;;;;;15.03;13.37;;;;;;;;;;6161544;28;20234;-73
2022/03/26 09:40:25;;;;;;;16.77;14.43;;;;;;;;;;6160347;28;20235;-73
2022/03/26 09:43:46;;;;;;;15.87;14.17;;;;;;;;;;6152244;28;20234;-72
2022/03/26 09:47:08;;;;;;;18.33;13.60;;;;;;;;;;6152608;28;20231;-73
2022/03/26 09:50:29;;;;;;;16.00;12.70;;;;;;;;;;6159058;28;20333;-74
2022/03/26 09:53:53;;;;;;;18.00;16.13;;;;;;;;;;6139286;28;20313;-72
2022/03/26 09:57:13;;;;;;;17.40;15.20;;;;;;;;;;6156410;28;20310;-74
2022/03/26 10:00:34;;;;;;;14.37;12.70;;;;;;;;;;6126063;28;20219;-74
2022/03/26 10:04:08;;;;;;;13.73;12.33;;;;;;;;;;6161303;28;20334;-74
2022/03/26 10:07:30;;;;;;;14.03;12.63;;;;;;;;;;6163530;28;20234;-73
2022/03/26 10:10:52;;;;;;;12.67;11.47;;;;;;;;;;6158522;28;20238;-72
2022/03/26 10:14:14;;;;;;;12.90;11.60;;;;;;;;;;6159732;28;20238;-73
2022/03/26 10:17:35;;;;;;;15.17;12.17;;;;;;;;;;6160308;28;20604;-72
2022/03/26 10:20:59;;;;;;;14.20;12.70;;;;;;;;;;6155667;28;20608;-74
2022/03/26 10:24:24;;;;;;;15.43;13.43;;;;;;;;;;6161918;28;20620;-75
2022/03/26 10:27:48;;;;;;;14.43;12.90;;;;;;;;;;6159156;28;20496;-73
2022/03/26 10:35:03;;;;;;;14.53;13.03;;;;;;;;;;6151200;28;20234;-73
2022/03/26 10:38:30;;;;;;;18.37;13.50;;;;;;;;;;6163691;28;20237;-73
2022/03/26 10:41:52;;;;;;;19.60;14.23;;;;;;;;;;6164075;28;20558;-73
2022/03/26 10:45:17;;;;;;;15.13;13.70;;;;;;;;;;6162333;28;20238;-73
2022/03/26 10:48:38;;;;;;;15.97;13.73;;;;;;;;;;6163192;28;20233;-73
2022/03/26 10:52:05;;;;;;;20.67;13.73;;;;;;;;;;6160352;28;20231;-74
2022/03/26 10:55:28;;;;;;;17.33;14.27;;;;;;;;;;6162342;28;20238;-73
2022/03/26 10:58:49;;;;;;;14.67;12.23;;;;;;;;;;6155162;28;20258;-73
2022/03/26 11:02:11;;;;;;;16.47;13.17;;;;;;;;;;6155104;28;20322;-72
2022/03/26 11:05:33;;;;;;;15.40;13.10;;;;;;;;;;6166878;28;20632;-73
2022/03/26 11:08:59;;;;;;;16.83;13.60;;;;;;;;;;6170440;28;20230;-73
2022/03/26 11:12:21;;;;;;;14.03;12.60;;;;;;;;;;6166498;28;20230;-73
2022/03/26 11:15:44;;;;;;;14.40;12.93;;;;;;;;;;6155351;28;20931;-73
2022/03/26 11:19:14;;;;;;;16.30;13.43;;;;;;;;;;6162424;28;20234;-73
2022/03/26 11:22:48;;;;;;;12.50;11.30;;;;;;;;;;6151649;28;20616;-71
2022/03/26 11:26:23;;;;;;;13.00;11.80;;;;;;;;;;6161693;28;20234;-74
2022/03/26 11:29:58;;;;;;;13.67;11.97;;;;;;;;;;6164066;28;20226;-73
2022/03/26 11:33:20;;;;;;;12.10;10.77;;;;;;;;;;6158367;28;20321;-73
2022/03/26 11:36:43;;;;;;;12.70;11.40;;;;;;;;;;6164319;28;20242;-73
2022/03/26 11:40:04;;;;;;;11.20;10.10;;;;;;;;;;6162876;28;20262;-73
2022/03/26 11:43:55;;;;;;;10.73;9.63;;;;;;;;;;6166402;28;20226;-75
2022/03/26 11:51:14;;;;;;;12.10;10.80;;;;;;;;;;6155584;28;20740;-73
2022/03/26 11:54:37;;;;;;;11.23;10.10;;;;;;;;;;6160009;28;20254;-74
2022/03/26 11:58:14;;;;;;;11.70;10.50;;;;;;;;;;6166729;28;20559;-73
2022/03/26 12:01:36;;;;;;;9.67;8.73;;;;;;;;;;6167820;28;20328;-75
2022/03/26 12:04:58;;;;;;;11.00;9.47;;;;;;;;;;6150472;28;20234;-73
2022/03/26 12:08:20;;;;;;;10.37;9.37;;;;;;;;;;6166049;28;20235;-73
2022/03/26 12:12:15;;;;;;;9.33;8.53;;;;;;;;;;6169447;28;20670;-73
2022/03/26 12:15:37;;;;;;;12.67;9.87;;;;;;;;;;6163416;28;20226;-73
2022/03/26 12:18:58;;;;;;;10.47;9.47;;;;;;;;;;6166563;28;20226;-74
2022/03/26 12:22:21;;;;;;;11.50;10.53;;;;;;;;;;6169775;28;20230;-74
2022/03/26 12:25:50;;;;;;;13.83;9.53;;;;;;;;;;6163379;28;24242;-73
2022/03/26 12:29:12;;;;;;;12.37;11.07;;;;;;;;;;6164894;28;20619;-75
2022/03/26 12:32:34;;;;;;;12.07;10.37;;;;;;;;;;6168122;28;20238;-74
2022/03/26 12:35:56;;;;;;;11.70;10.67;;;;;;;;;;6168696;28;20512;-74
2022/03/26 12:39:17;;;;;;;11.80;10.13;;;;;;;;;;6166593;28;20238;-73
2022/03/26 12:42:37;;;;;;;10.23;8.87;;;;;;;;;;6169807;28;20230;-74
2022/03/26 12:46:00;;;;;;;9.00;8.10;;;;;;;;;;6165162;28;20222;-73
2022/03/26 12:49:23;;;;;;;9.80;8.53;;;;;;;;;;6162078;28;20321;-74
2022/03/26 12:52:43;;;;;;;10.27;8.97;;;;;;;;;;6157804;28;20544;-74
2022/03/26 12:56:08;;;;;;;11.50;7.90;;;;;;;;;;6165126;28;20234;-73
2022/03/26 12:59:29;;;;;;;7.80;7.07;;;;;;;;;;6165983;28;20234;-73
2022/03/26 13:03:00;;;;;;;9.15;7.15;;;;;;;;;;6168885;28;20227;-74
2022/03/26 13:06:24;;;;;;;8.73;7.28;;;;;;;;;;6163380;28;20242;-73
2022/03/26 13:09:44;;;;;;;7.07;6.38;;;;;;;;;;6165318;28;20234;-74
2022/03/26 13:13:08;;;;;;;9.07;8.17;;;;;;;;;;6164776;28;20329;-73
2022/03/26 13:16:30;;;;;;;9.13;8.23;;;;;;;;;;6153656;28;20246;-73
2022/03/26 13:19:56;;;;;;;8.05;7.10;;;;;;;;;;6164284;28;20242;-72
2022/03/26 13:23:18;;;;;;;8.98;6.35;;;;;;;;;;6162119;28;20238;-75
2022/03/26 13:26:41;;;;;;;9.85;7.13;;;;;;;;;;6168592;28;20231;-73
2022/03/26 13:30:09;;;;;;;7.70;6.90;;;;;;;;;;6163696;28;20230;-73
2022/03/26 13:33:30;;;;;;;7.63;7.00;;;;;;;;;;6168137;28;20333;-73
2022/03/26 13:36:51;;;;;;;8.40;6.03;;;;;;;;;;6167785;28;20325;-74
2022/03/26 13:40:13;;;;;;;8.03;5.97;;;;;;;;;;6155680;28;20230;-73
2022/03/26 13:43:34;;;;;;;7.20;6.30;;;;;;;;;;6157745;28;20230;-74
2022/03/26 13:46:55;;;;;;;9.63;6.73;;;;;;;;;;6160133;28;20254;-74
2022/03/26 13:50:16;;;;;;;8.20;5.97;;;;;;;;;;6166424;28;20230;-74
2022/03/26 13:53:40;;;;;;;7.17;6.03;;;;;;;;;;6168342;28;20318;-73
2022/03/26 13:57:05;;;;;;;6.63;5.93;;;;;;;;;;6159337;28;20644;-73
2022/03/26 14:00:27;;;;;;;6.87;5.07;;;;;;;;;;6163810;28;20249;-74
2022/03/26 14:03:53;;;;;;;7.00;4.95;;;;;;;;;;6159054;28;20227;-74
2022/03/26 14:07:14;;;;;;;8.63;5.80;;;;;;;;;;6161201;28;20636;-75
2022/03/26 14:10:37;;;;;;;8.32;5.65;;;;;;;;;;6155908;28;20227;-74
2022/03/26 14:13:59;;;;;;;8.95;5.68;;;;;;;;;;6153420;28;20250;-74
2022/03/26 14:17:20;;;;;;;9.87;4.90;;;;;;;;;;6151339;28;20245;-74
2022/03/26 14:20:41;;;;;;;8.90;5.53;;;;;;;;;;6156477;28;20259;-74
2022/03/26 14:24:02;;;;;;;4.90;4.43;;;;;;;;;;6147980;28;20263;-73
2022/03/26 14:27:23;;;;;;;5.23;4.57;;;;;;;;;;6148075;28;20223;-73
2022/03/26 14:30:46;;;;;;;5.50;3.83;;;;;;;;;;6148413;28;20797;-74
2022/03/26 14:34:07;;;;;;;4.77;3.83;;;;;;;;;;6153451;28;20222;-73
2022/03/26 14:37:27;;;;;;;4.60;3.90;;;;;;;;;;6167782;28;20234;-73
2022/03/26 14:40:50;;;;;;;6.57;4.80;;;;;;;;;;6150394;28;20543;-74
2022/03/26 14:44:10;;;;;;;8.40;5.73;;;;;;;;;;6160697;28;20227;-73
2022/03/26 14:47:33;;;;;;;7.83;5.03;;;;;;;;;;6159236;28;20235;-73
2022/03/26 14:50:55;;;;;;;6.00;4.80;;;;;;;;;;6161349;28;20499;-72
2022/03/26 14:54:15;;;;;;;6.03;5.00;;;;;;;;;;6156032;28;20238;-73
2022/03/26 14:57:37;;;;;;;7.63;4.87;;;;;;;;;;6157576;28;20231;-74
2022/03/26 15:00:57;;;;;;;4.90;3.97;;;;;;;;;;6155449;28;20235;-74
2022/03/26 15:04:19;;;;;;;6.40;4.53;;;;;;;;;;6158963;28;20272;-73
2022/03/26 15:07:40;;;;;;;7.50;3.73;;;;;;;;;;6157488;28;20234;-74
2022/03/26 15:11:03;;;;;;;6.00;4.73;;;;;;;;;;6165838;28;20550;-74
2022/03/26 15:14:25;;;;;;;5.53;4.57;;;;;;;;;;6162165;28;20242;-74
2022/03/26 15:17:46;;;;;;;6.07;4.90;;;;;;;;;;6157033;28;20246;-74
2022/03/26 15:21:08;;;;;;;7.30;5.43;;;;;;;;;;6158405;28;20234;-73
2022/03/26 15:24:30;;;;;;;5.80;4.43;;;;;;;;;;6157215;28;20234;-73
2022/03/26 15:27:50;;;;;;;6.67;4.30;;;;;;;;;;6151401;28;20227;-74
2022/03/26 15:31:11;;;;;;;6.10;4.80;;;;;;;;;;6152488;28;20242;-73
2022/03/26 15:34:32;;;;;;;5.77;4.87;;;;;;;;;;6156883;28;20250;-74
2022/03/26 15:37:54;;;;;;;6.00;4.47;;;;;;;;;;6168567;28;20266;-74
2022/03/26 15:41:15;;;;;;;4.60;4.13;;;;;;;;;;6164209;28;20238;-72
2022/03/26 15:44:36;;;;;;;6.33;4.63;;;;;;;;;;6163956;28;20330;-71
2022/03/26 15:47:57;;;;;;;4.53;3.83;;;;;;;;;;6169465;28;20608;-74
2022/03/26 15:51:18;;;;;;;5.60;4.50;;;;;;;;;;6169510;28;20238;-75
2022/03/26 15:54:40;;;;;;;5.37;4.87;;;;;;;;;;6161315;28;20230;-74
2022/03/26 15:58:02;;;;;;;5.87;4.13;;;;;;;;;;6160138;28;20526;-72
2022/03/26 16:01:23;;;;;;;5.83;4.90;;;;;;;;;;6156669;28;20325;-74
2022/03/26 16:04:43;;;;;;;6.03;4.33;;;;;;;;;;6165038;28;22902;-71
2022/03/26 16:08:05;;;;;;;4.70;3.53;;;;;;;;;;6166933;28;20633;-73
2022/03/26 16:11:27;;;;;;;4.10;3.60;;;;;;;;;;6166549;28;20254;-74
2022/03/26 16:14:48;;;;;;;4.97;4.27;;;;;;;;;;6165496;28;20621;-74
2022/03/26 16:18:11;;;;;;;6.13;5.23;;;;;;;;;;6163374;28;20233;-73
2022/03/26 16:21:33;;;;;;;5.17;4.67;;;;;;;;;;6173323;28;20688;-73
2022/03/26 16:24:54;;;;;;;5.43;4.07;;;;;;;;;;6163033;28;20230;-73
2022/03/26 16:28:16;;;;;;;4.77;4.37;;;;;;;;;;6164070;28;20243;-73
2022/03/26 16:31:37;;;;;;;6.03;4.53;;;;;;;;;;6149808;28;20360;-74
2022/03/26 16:34:58;;;;;;;5.37;4.87;;;;;;;;;;6150531;28;20310;-75
2022/03/26 16:38:19;;;;;;;6.40;5.27;;;;;;;;;;6163928;28;20230;-74
2022/03/26 16:41:40;;;;;;;6.00;4.17;;;;;;;;;;6166991;28;20234;-74
2022/03/26 16:45:02;;;;;;;4.40;4.00;;;;;;;;;;6140799;28;20609;-74
2022/03/26 16:48:23;;;;;;;6.87;5.60;;;;;;;;;;6149205;28;20234;-73
2022/03/26 16:51:45;;;;;;;4.00;3.67;;;;;;;;;;6150239;28;20242;-73
2022/03/26 16:55:07;;;;;;;5.23;4.50;;;;;;;;;;6163673;28;20274;-74
2022/03/26 16:58:28;;;;;;;5.93;5.00;;;;;;;;;;6144829;28;20732;-74
2022/03/26 17:01:51;;;;;;;7.07;6.40;;;;;;;;;;6168019;28;20317;-74
2022/03/26 17:05:15;;;;;;;4.70;4.30;;;;;;;;;;6151130;28;20231;-74
2022/03/26 17:08:39;;;;;;;6.27;5.40;;;;;;;;;;6168490;28;20247;-74
2022/03/26 17:12:00;;;;;;;6.97;6.37;;;;;;;;;;6159352;28;20238;-74
2022/03/26 17:15:22;;;;;;;9.17;8.27;;;;;;;;;;6159769;28;20235;-73
2022/03/26 17:18:44;;;;;;;5.70;4.50;;;;;;;;;;6157714;28;20230;-72
2022/03/26 17:22:05;;;;;;;4.30;4.00;;;;;;;;;;6165296;28;20234;-74
2022/03/26 17:25:25;;;;;;;4.97;4.57;;;;;;;;;;6164880;28;20610;-74
2022/03/26 17:28:46;;;;;;;5.10;4.70;;;;;;;;;;6167399;28;20509;-74
2022/03/26 17:32:07;;;;;;;5.67;5.17;;;;;;;;;;6162856;28;20258;-74
2022/03/26 17:35:31;;;;;;;5.77;5.23;;;;;;;;;;6168423;28;20712;-74
2022/03/26 17:38:52;;;;;;;7.37;5.47;;;;;;;;;;6168731;28;20230;-74
2022/03/26 17:42:12;;;;;;;9.57;6.47;;;;;;;;;;6161458;28;20258;-73
2022/03/26 17:45:33;;;;;;;9.97;5.10;;;;;;;;;;6166219;28;20234;-73
2022/03/26 17:48:54;;;;;;;5.97;5.47;;;;;;;;;;6168545;28;20325;-73
2022/03/26 17:52:16;;;;;;;7.27;6.60;;;;;;;;;;6168613;28;20620;-73
2022/03/26 17:55:37;;;;;;;7.43;5.63;;;;;;;;;;6167242;28;20221;-74
2022/03/26 17:58:58;;;;;;;5.20;4.70;;;;;;;;;;6167036;28;20590;-73
2022/03/26 18:02:19;;;;;;;5.07;4.53;;;;;;;;;;6169102;28;20265;-73
2022/03/26 18:05:40;;;;;;;6.27;4.77;;;;;;;;;;6158544;28;20223;-73
2022/03/26 18:09:02;;;;;;;9.17;5.90;;;;;;;;;;6161648;28;20223;-74
2022/03/26 18:12:23;;;;;;;9.73;5.20;;;;;;;;;;6162235;28;20545;-74
2022/03/26 18:15:44;;;;;;;8.60;6.17;;;;;;;;;;6159691;28;20281;-73
2022/03/26 18:19:05;;;;;;;8.47;6.07;;;;;;;;;;6164450;28;20234;-74
2022/03/26 18:22:26;;;;;;;7.17;5.20;;;;;;;;;;6164998;28;20705;-74
2022/03/26 18:25:48;;;;;;;7.03;5.87;;;;;;;;;;6163519;28;20234;-73
2022/03/26 18:29:10;;;;;;;8.33;5.60;;;;;;;;;;6162492;28;20222;-73
2022/03/26 18:32:31;;;;;;;7.03;5.63;;;;;;;;;;6159328;28;20647;-73
2022/03/26 18:35:52;;;;;;;6.13;5.30;;;;;;;;;;6167363;28;20241;-74
2022/03/26 18:39:15;;;;;;;6.50;4.97;;;;;;;;;;6165734;28;20675;-73
2022/03/26 18:42:38;;;;;;;7.13;4.93;;;;;;;;;;6166315;28;20273;-72
2022/03/26 18:45:59;;;;;;;7.30;5.30;;;;;;;;;;6161213;28;20496;-73
2022/03/26 18:49:20;;;;;;;6.83;5.17;;;;;;;;;;6156306;28;20512;-73
2022/03/26 18:52:41;;;;;;;6.30;4.53;;;;;;;;;;6165251;28;20588;-73
2022/03/26 18:56:01;;;;;;;7.30;5.47;;;;;;;;;;6164662;28;20317;-74
2022/03/26 18:59:23;;;;;;;7.60;5.43;;;;;;;;;;6166481;28;20234;-71
2022/03/26 19:02:44;;;;;;;7.97;6.30;;;;;;;;;;6165835;28;20238;-72
2022/03/26 19:06:07;;;;;;;5.10;4.60;;;;;;;;;;6165753;28;20309;-73
2022/03/26 19:09:28;;;;;;;7.30;5.03;;;;;;;;;;6163455;28;20593;-73
2022/03/26 19:12:49;;;;;;;10.70;5.30;;;;;;;;;;6172811;28;20283;-73
2022/03/26 19:16:12;;;;;;;10.20;6.27;;;;;;;;;;6155332;28;20229;-73
2022/03/26 19:19:33;;;;;;;6.53;4.63;;;;;;;;;;6158288;28;20242;-73
2022/03/26 19:22:53;;;;;;;4.93;4.40;;;;;;;;;;6172578;28;20249;-73
2022/03/26 19:26:15;;;;;;;5.00;4.50;;;;;;;;;;6163746;28;20238;-73
2022/03/26 19:29:40;;;;;;;7.10;6.20;;;;;;;;;;6169913;28;20584;-73
2022/03/26 19:33:03;;;;;;;7.00;5.23;;;;;;;;;;6164982;28;20219;-73
2022/03/26 19:36:23;;;;;;;7.90;5.50;;;;;;;;;;6166659;28;20620;-71
2022/03/26 19:39:45;;;;;;;16.07;13.03;;;;;;;;;;6167582;28;20226;-74
2022/03/26 19:43:07;;;;;;;7.87;5.70;;;;;;;;;;6167743;28;20254;-74
2022/03/26 19:46:29;;;;;;;10.03;5.10;;;;;;;;;;6165138;28;20604;-73
2022/03/26 19:49:51;;;;;;;5.70;4.83;;;;;;;;;;6162931;28;20513;-73
2022/03/26 19:53:12;;;;;;;7.87;5.50;;;;;;;;;;6163071;28;20231;-73
2022/03/26 19:56:33;;;;;;;5.30;4.50;;;;;;;;;;6168474;28;20507;-73